Terminal Aerodrome Forecast
Issued by NWS Jackson, MS

Home | Current Version | Previous Version | Text Only | Print | Product List | Glossary On
Versions: 1 2 3 4 5 6 7 8 9 10 11 12 13
000
FTUS44 KJAN 271726
TAFHBG
TAF
KHBG 271726Z 2718/2818 09003KT P6SM SCT060 SCT250
     FM280900 00000KT 4SM BR SKC
     FM281300 08004KT P6SM SCT250=

USA.gov is the U.S. government's official web portal to all federal, state and local government web resources and services.